Time;durP1;ratioP1;P1;durP2;ratioP2;P2;SDS_P1;SDS_P2;PMS_P1;PMS_P2;Temp;Humidity;BMP_temperature;BMP_pressure;BME280_temperature;BME280_humidity;BME280_pressure;Samples;Min_cycle;Max_cycle;Signal;HPM_P1;HPM_P2
2022/07/07 00:01:11;;;;;;;12.23;6.90;;;17.00;99.90;;;;;;5114085;28;20379;-49
2022/07/07 00:03:37;;;;;;;13.63;7.18;;;17.10;99.90;;;;;;5114281;28;20043;-51
2022/07/07 00:06:03;;;;;;;15.55;7.60;;;17.10;99.90;;;;;;5113965;28;20118;-47
2022/07/07 00:08:29;;;;;;;12.85;8.10;;;17.10;99.90;;;;;;5113454;28;20044;-50
2022/07/07 00:10:56;;;;;;;12.73;8.40;;;16.90;99.90;;;;;;5113734;28;20080;-49
2022/07/07 00:13:22;;;;;;;12.13;8.40;;;16.90;99.90;;;;;;5113899;28;20098;-52
2022/07/07 00:15:49;;;;;;;13.50;8.32;;;16.90;99.90;;;;;;5113761;28;20388;-50
2022/07/07 00:18:15;;;;;;;10.75;7.65;;;17.10;99.90;;;;;;5113541;28;20047;-50
2022/07/07 00:20:41;;;;;;;13.23;6.80;;;16.90;99.90;;;;;;5113559;28;20035;-51
2022/07/07 00:23:07;;;;;;;12.60;6.78;;;16.80;99.90;;;;;;5131187;27;20039;-51
2022/07/07 00:25:33;;;;;;;14.10;6.30;;;16.90;99.90;;;;;;5113327;28;20069;-51
2022/07/07 00:27:58;;;;;;;11.85;6.43;;;16.80;99.90;;;;;;5113529;28;20462;-51
2022/07/07 00:30:24;;;;;;;13.15;6.95;;;17.00;99.90;;;;;;5113474;28;20066;-49
2022/07/07 00:32:50;;;;;;;11.75;7.50;;;17.10;99.90;;;;;;5113557;28;20399;-51
2022/07/07 00:35:16;;;;;;;14.98;8.70;;;17.10;99.90;;;;;;5113738;27;20051;-51
2022/07/07 00:37:42;;;;;;;11.75;8.05;;;17.10;99.90;;;;;;5113216;28;20031;-52
2022/07/07 00:40:08;;;;;;;13.02;8.48;;;17.10;99.90;;;;;;5112690;28;20074;-49
2022/07/07 00:42:34;;;;;;;10.98;8.05;;;17.00;99.90;;;;;;5113031;28;20039;-52
2022/07/07 00:44:59;;;;;;;9.52;7.20;;;17.00;99.90;;;;;;5113270;27;20046;-50
2022/07/07 00:47:26;;;;;;;13.35;7.28;;;17.00;99.90;;;;;;5112548;28;20032;-51
2022/07/07 00:49:52;;;;;;;9.27;6.00;;;16.80;99.90;;;;;;5113005;27;20397;-48
2022/07/07 00:52:19;;;;;;;9.85;5.07;;;17.00;99.90;;;;;;5113024;28;20035;-52
2022/07/07 00:54:52;;;;;;;9.32;4.78;;;17.00;99.90;;;;;;5112664;28;20090;-51
2022/07/07 00:57:19;;;;;;;8.25;4.18;;;17.20;99.90;;;;;;5113168;28;20502;-51
2022/07/07 00:59:44;;;;;;;8.57;2.78;;;17.10;99.90;;;;;;5113290;28;20478;-48
2022/07/07 01:02:10;;;;;;;4.95;2.03;;;17.10;99.90;;;;;;5111742;28;20042;-50
2022/07/07 01:04:36;;;;;;;5.95;1.88;;;17.10;99.90;;;;;;5125681;27;20039;-50
2022/07/07 01:07:02;;;;;;;6.38;1.77;;;17.10;99.90;;;;;;5094362;28;20180;-52
2022/07/07 01:09:28;;;;;;;8.55;1.90;;;17.10;99.90;;;;;;5112907;28;20035;-48
2022/07/07 01:11:56;;;;;;;5.40;2.00;;;17.20;99.90;;;;;;5112901;28;20036;-50
2022/07/07 01:14:23;;;;;;;5.20;1.58;;;17.20;99.90;;;;;;5112723;28;20039;-47
2022/07/07 01:16:50;;;;;;;6.00;1.67;;;17.10;99.90;;;;;;5112155;28;20035;-49
2022/07/07 01:19:16;;;;;;;5.65;1.77;;;17.20;99.90;;;;;;5112307;28;20036;-47
2022/07/07 01:21:54;;;;;;;5.75;2.00;;;17.20;99.90;;;;;;5112250;28;20032;-47
2022/07/07 01:24:26;;;;;;;4.60;1.65;;;17.00;99.90;;;;;;5118612;27;20040;-48
2022/07/07 01:27:08;;;;;;;4.90;1.98;;;16.70;99.90;;;;;;5112634;28;20110;-49
2022/07/07 01:29:38;;;;;;;5.80;1.80;;;16.50;99.90;;;;;;5114062;27;20523;-47
2022/07/07 01:32:07;;;;;;;8.05;2.40;;;16.40;99.90;;;;;;5095436;28;20031;-47
2022/07/07 01:34:34;;;;;;;5.00;2.20;;;16.30;99.90;;;;;;5117015;27;20055;-48
2022/07/07 01:37:00;;;;;;;4.15;1.70;;;16.40;99.90;;;;;;5127478;27;20045;-48
2022/07/07 01:39:26;;;;;;;5.65;2.20;;;16.50;99.90;;;;;;5111836;28;20054;-46
2022/07/07 01:41:51;;;;;;;9.18;2.83;;;16.40;99.90;;;;;;5116289;27;20404;-50
2022/07/07 01:44:17;;;;;;;5.82;3.00;;;16.40;99.90;;;;;;5118748;27;20039;-50
2022/07/07 01:46:42;;;;;;;6.10;2.40;;;16.30;99.90;;;;;;5124393;27;20156;-46
2022/07/07 01:49:09;;;;;;;6.03;2.47;;;16.00;99.90;;;;;;5115073;27;20039;-50
2022/07/07 01:51:34;;;;;;;5.65;3.03;;;16.10;99.90;;;;;;5126143;27;20478;-48
2022/07/07 01:54:00;;;;;;;5.75;3.00;;;16.10;99.90;;;;;;5114445;27;20035;-47
2022/07/07 01:56:26;;;;;;;5.78;2.45;;;16.20;99.90;;;;;;5112469;27;20043;-52
2022/07/07 01:58:51;;;;;;;8.30;3.63;;;16.30;99.90;;;;;;5121656;27;20042;-48
2022/07/07 02:01:18;;;;;;;7.25;3.20;;;16.20;99.90;;;;;;5125546;27;20023;-48
2022/07/07 02:03:44;;;;;;;5.93;3.40;;;16.10;99.90;;;;;;5119892;27;20066;-51
2022/07/07 02:06:09;;;;;;;5.97;2.65;;;16.40;99.90;;;;;;5131653;27;20513;-47
2022/07/07 02:08:35;;;;;;;5.82;3.10;;;16.00;99.90;;;;;;5125713;27;20101;-47
2022/07/07 02:11:13;;;;;;;6.88;3.33;;;16.10;99.90;;;;;;5131843;27;20073;-47
2022/07/07 02:13:50;;;;;;;5.63;3.08;;;16.30;99.90;;;;;;5115621;27;20079;-46
2022/07/07 02:16:17;;;;;;;6.50;3.40;;;16.10;99.90;;;;;;5121803;27;20486;-46
2022/07/07 02:18:44;;;;;;;6.47;3.28;;;16.20;99.90;;;;;;5093481;28;20467;-46
2022/07/07 02:21:11;;;;;;;7.57;3.35;;;16.30;99.90;;;;;;5119882;27;20043;-49
2022/07/07 02:23:39;;;;;;;6.35;3.38;;;16.20;99.90;;;;;;5111369;28;20067;-46
2022/07/07 02:26:05;;;;;;;7.10;3.17;;;16.10;99.90;;;;;;5110767;28;20122;-53
2022/07/07 02:28:30;;;;;;;9.50;3.85;;;16.10;99.90;;;;;;5104552;27;20183;-51
2022/07/07 02:30:57;;;;;;;6.55;3.15;;;16.00;99.90;;;;;;5131550;27;20047;-47
2022/07/07 02:33:23;;;;;;;8.68;3.05;;;16.20;99.90;;;;;;5131196;27;20072;-48
2022/07/07 02:35:50;;;;;;;7.95;3.80;;;15.90;99.90;;;;;;5131567;27;20050;-48
2022/07/07 02:38:16;;;;;;;7.82;3.33;;;16.20;99.90;;;;;;5125254;27;20117;-47
2022/07/07 02:40:42;;;;;;;8.35;3.80;;;16.20;99.90;;;;;;5131395;27;20031;-49
2022/07/07 02:43:15;;;;;;;5.60;2.72;;;16.10;99.90;;;;;;5112825;27;20497;-48
2022/07/07 02:45:42;;;;;;;7.95;3.70;;;16.00;99.90;;;;;;5130985;27;20030;-47
2022/07/07 02:48:09;;;;;;;9.52;3.75;;;16.30;99.90;;;;;;5131102;27;20110;-45
2022/07/07 02:50:35;;;;;;;6.13;3.33;;;16.00;99.90;;;;;;5127078;27;20027;-46
2022/07/07 02:53:01;;;;;;;9.10;3.72;;;16.10;99.90;;;;;;5131099;27;20038;-49
2022/07/07 02:55:27;;;;;;;5.70;3.38;;;16.00;99.90;;;;;;5126634;27;20466;-48
2022/07/07 02:57:53;;;;;;;5.88;3.20;;;16.00;99.90;;;;;;5131182;27;20035;-46
2022/07/07 03:00:19;;;;;;;9.70;3.50;;;16.30;99.90;;;;;;5131029;27;20416;-45
2022/07/07 03:02:44;;;;;;;8.18;3.92;;;16.20;99.90;;;;;;5130672;27;20046;-48
2022/07/07 03:05:13;;;;;;;9.10;4.18;;;16.20;99.90;;;;;;5130853;27;20035;-47
2022/07/07 03:07:38;;;;;;;7.53;4.05;;;16.00;99.90;;;;;;5118941;27;20048;-45
2022/07/07 03:10:06;;;;;;;8.13;3.58;;;16.00;99.90;;;;;;5110660;28;20096;-47
2022/07/07 03:12:32;;;;;;;11.52;4.10;;;16.10;99.90;;;;;;5092299;28;20114;-46
2022/07/07 03:14:57;;;;;;;8.70;3.50;;;16.10;99.90;;;;;;5110617;28;20443;-51
2022/07/07 03:17:23;;;;;;;8.82;3.45;;;16.20;99.90;;;;;;5092083;28;20096;-49
2022/07/07 03:19:48;;;;;;;9.48;3.38;;;16.20;99.90;;;;;;5129043;28;20125;-48
2022/07/07 03:22:14;;;;;;;8.20;3.08;;;16.10;99.90;;;;;;5091232;28;20044;-46
2022/07/07 03:24:40;;;;;;;10.93;3.35;;;16.10;99.90;;;;;;5120425;28;20039;-49
2022/07/07 03:27:06;;;;;;;7.85;2.50;;;16.10;99.90;;;;;;5113863;28;20040;-50
2022/07/07 03:29:32;;;;;;;8.15;2.38;;;16.10;99.90;;;;;;5113557;28;20465;-50
2022/07/07 03:31:58;;;;;;;8.90;2.50;;;16.10;99.90;;;;;;5113323;28;20039;-49
2022/07/07 03:34:23;;;;;;;8.23;2.00;;;16.00;99.90;;;;;;5130903;28;20126;-47
2022/07/07 03:36:49;;;;;;;8.40;2.20;;;16.00;99.90;;;;;;5130816;28;20054;-48
2022/07/07 03:39:15;;;;;;;9.70;2.40;;;16.00;99.90;;;;;;5112603;28;20043;-48
2022/07/07 03:41:40;;;;;;;8.13;2.30;;;16.00;99.90;;;;;;5124160;28;20043;-48
2022/07/07 03:44:06;;;;;;;10.77;2.42;;;15.90;99.90;;;;;;5119585;28;20035;-47
2022/07/07 03:46:32;;;;;;;8.40;2.03;;;16.00;99.90;;;;;;5125055;28;20038;-47
2022/07/07 03:48:58;;;;;;;8.07;2.35;;;15.90;99.90;;;;;;5120039;28;20119;-47
2022/07/07 03:51:24;;;;;;;5.65;1.88;;;15.80;99.90;;;;;;5113488;28;20028;-46
2022/07/07 03:53:49;;;;;;;11.27;2.30;;;15.80;99.90;;;;;;5122150;28;20417;-49
2022/07/07 03:56:15;;;;;;;5.05;1.50;;;15.90;99.90;;;;;;5124810;28;20097;-47
2022/07/07 03:58:41;;;;;;;8.40;1.95;;;15.80;99.90;;;;;;5096135;28;20039;-47
2022/07/07 04:01:06;;;;;;;11.48;2.33;;;15.90;99.90;;;;;;5108923;28;20061;-45
2022/07/07 04:03:32;;;;;;;7.97;1.95;;;15.70;99.90;;;;;;5115737;28;20035;-47
2022/07/07 04:05:58;;;;;;;5.95;1.80;;;15.90;99.90;;;;;;5119397;28;20031;-51
2022/07/07 04:08:24;;;;;;;9.45;1.92;;;15.90;99.90;;;;;;5113045;28;20051;-48
2022/07/07 04:10:49;;;;;;;10.02;2.10;;;15.80;99.90;;;;;;5124674;28;20043;-49
2022/07/07 04:13:15;;;;;;;9.98;1.65;;;15.70;99.90;;;;;;5128722;28;20035;-46
2022/07/07 04:15:41;;;;;;;6.85;1.45;;;15.80;99.90;;;;;;5111465;28;20035;-46
2022/07/07 04:18:07;;;;;;;8.07;1.52;;;15.50;99.90;;;;;;5113604;28;20032;-47
2022/07/07 04:20:32;;;;;;;5.88;1.00;;;15.80;99.90;;;;;;5126456;27;20111;-47
2022/07/07 04:22:58;;;;;;;5.22;1.10;;;15.70;99.90;;;;;;5134044;27;20116;-47
2022/07/07 04:25:24;;;;;;;4.47;0.82;;;15.60;99.90;;;;;;5123948;27;20088;-46
2022/07/07 04:27:50;;;;;;;5.20;0.95;;;15.40;99.90;;;;;;5107686;27;20047;-47
2022/07/07 04:30:16;;;;;;;7.03;1.10;;;15.30;99.90;;;;;;5133619;27;20046;-50
2022/07/07 04:32:42;;;;;;;7.22;1.25;;;15.50;99.90;;;;;;5125891;27;20032;-48
2022/07/07 04:35:08;;;;;;;6.78;1.27;;;15.50;99.90;;;;;;5116128;27;20039;-47
2022/07/07 04:37:34;;;;;;;8.27;1.48;;;15.40;99.90;;;;;;5115181;27;20514;-47
2022/07/07 04:40:00;;;;;;;8.25;1.40;;;15.20;99.90;;;;;;5095056;28;20516;-48
2022/07/07 04:42:26;;;;;;;8.38;1.50;;;15.40;99.90;;;;;;5117045;27;20039;-50
2022/07/07 04:44:51;;;;;;;9.20;1.60;;;15.40;99.90;;;;;;5117768;27;20040;-47
2022/07/07 04:47:17;;;;;;;4.43;1.30;;;15.20;99.90;;;;;;5112694;27;20049;-46
2022/07/07 04:49:43;;;;;;;7.15;1.10;;;15.50;99.90;;;;;;5098152;27;20045;-46
2022/07/07 04:52:09;;;;;;;8.02;1.23;;;15.30;99.90;;;;;;5115239;27;20127;-47
2022/07/07 04:54:35;;;;;;;4.78;1.40;;;15.30;99.90;;;;;;5114220;27;20078;-46
2022/07/07 04:57:00;;;;;;;9.27;1.77;;;15.50;99.90;;;;;;5113004;27;20039;-47
2022/07/07 04:59:26;;;;;;;8.43;1.17;;;15.40;99.90;;;;;;5093367;28;20672;-48
2022/07/07 05:01:52;;;;;;;9.65;1.40;;;15.30;99.90;;;;;;5110703;27;20395;-49
2022/07/07 05:04:17;;;;;;;8.13;1.42;;;15.40;99.90;;;;;;5120321;27;20039;-50
2022/07/07 05:06:43;;;;;;;6.65;1.27;;;15.40;99.90;;;;;;5119663;27;20424;-49
2022/07/07 05:09:12;;;;;;;8.13;1.60;;;15.30;99.90;;;;;;5106955;28;20047;-49
2022/07/07 05:11:37;;;;;;;9.80;1.70;;;15.30;99.90;;;;;;5122299;27;20542;-47
2022/07/07 05:14:03;;;;;;;8.35;1.80;;;15.30;99.90;;;;;;5133253;27;20042;-47
2022/07/07 05:16:30;;;;;;;8.50;1.60;;;15.30;99.90;;;;;;5128169;27;20043;-47
2022/07/07 05:18:56;;;;;;;11.10;2.05;;;15.50;99.90;;;;;;5113708;27;20039;-46
2022/07/07 05:21:22;;;;;;;10.57;2.08;;;15.30;99.90;;;;;;5122563;27;20055;-47
2022/07/07 05:23:48;;;;;;;7.47;1.45;;;15.40;99.90;;;;;;5119713;27;20463;-47
2022/07/07 05:26:14;;;;;;;12.68;1.80;;;15.30;99.90;;;;;;5104154;27;20043;-50
2022/07/07 05:28:41;;;;;;;13.98;2.13;;;15.30;99.90;;;;;;5120996;27;20030;-47
2022/07/07 05:31:12;;;;;;;10.45;2.10;;;15.40;99.90;;;;;;5112266;28;20047;-48
2022/07/07 05:33:38;;;;;;;10.52;2.13;;;15.50;99.90;;;;;;5119093;27;20047;-47
2022/07/07 05:36:05;;;;;;;7.75;1.77;;;15.50;99.90;;;;;;5098475;27;20051;-48
2022/07/07 05:38:31;;;;;;;9.55;1.73;;;15.40;99.90;;;;;;5119970;27;20043;-50
2022/07/07 05:40:58;;;;;;;7.28;1.40;;;15.50;99.90;;;;;;5132454;27;20042;-47
2022/07/07 05:43:23;;;;;;;8.35;1.40;;;15.50;99.90;;;;;;5119784;27;20039;-49
2022/07/07 05:45:49;;;;;;;8.05;2.38;;;15.60;99.90;;;;;;5128946;27;20394;-50
2022/07/07 05:48:15;;;;;;;7.78;1.65;;;15.50;99.90;;;;;;5105104;27;20496;-50
2022/07/07 05:50:41;;;;;;;9.55;1.88;;;15.60;99.90;;;;;;5124882;27;20038;-47
2022/07/07 05:53:06;;;;;;;8.32;1.83;;;15.50;99.90;;;;;;5120214;27;20032;-49
2022/07/07 05:55:32;;;;;;;10.35;1.30;;;15.60;99.90;;;;;;5111467;28;20040;-49
2022/07/07 05:57:58;;;;;;;7.00;1.35;;;15.60;99.90;;;;;;5111279;28;20119;-48
2022/07/07 06:00:24;;;;;;;9.55;1.42;;;15.60;99.90;;;;;;5129079;27;20035;-51
2022/07/07 06:02:50;;;;;;;10.73;1.60;;;15.80;99.90;;;;;;5131914;27;20122;-50
2022/07/07 06:05:17;;;;;;;8.45;1.50;;;15.70;99.90;;;;;;5132082;27;20047;-50
2022/07/07 06:07:43;;;;;;;8.38;1.92;;;16.00;99.90;;;;;;5118412;27;20052;-49
2022/07/07 06:10:14;;;;;;;11.48;1.50;;;15.90;99.90;;;;;;5113051;27;20074;-48
2022/07/07 06:12:40;;;;;;;9.32;1.88;;;16.00;99.90;;;;;;5094249;28;20035;-48
2022/07/07 06:15:07;;;;;;;9.65;2.10;;;16.30;99.90;;;;;;5093273;28;20114;-48
2022/07/07 06:17:32;;;;;;;10.95;2.13;;;16.40;99.90;;;;;;5111463;28;20383;-48
2022/07/07 06:19:58;;;;;;;11.05;2.22;;;16.50;99.90;;;;;;5111333;28;20043;-48
2022/07/07 06:22:25;;;;;;;6.65;1.60;;;16.50;99.90;;;;;;5114728;27;20439;-51
2022/07/07 06:24:51;;;;;;;9.15;1.55;;;16.50;99.90;;;;;;5128841;27;20032;-51
2022/07/07 06:27:16;;;;;;;6.72;1.40;;;16.50;99.90;;;;;;5118515;27;20047;-48
2022/07/07 06:29:42;;;;;;;7.50;1.25;;;16.60;99.90;;;;;;5117143;27;20036;-51
2022/07/07 06:32:08;;;;;;;6.25;1.20;;;16.50;99.90;;;;;;5119851;27;20362;-47
2022/07/07 06:34:33;;;;;;;6.32;1.30;;;16.40;99.90;;;;;;5129124;27;20039;-49
2022/07/07 06:36:59;;;;;;;5.00;1.15;;;16.40;99.90;;;;;;5131051;27;20031;-48
2022/07/07 06:39:25;;;;;;;8.80;1.40;;;16.30;99.90;;;;;;5123521;27;20089;-47
2022/07/07 06:41:51;;;;;;;6.75;1.38;;;16.30;99.90;;;;;;5092568;28;20043;-52
2022/07/07 06:44:16;;;;;;;5.22;1.10;;;16.30;99.90;;;;;;5110718;28;20101;-50
2022/07/07 06:46:42;;;;;;;6.70;1.08;;;16.20;99.90;;;;;;5130713;27;20042;-50
2022/07/07 06:49:08;;;;;;;7.38;1.45;;;16.20;99.90;;;;;;5113416;27;20031;-49
2022/07/07 06:51:34;;;;;;;9.60;1.65;;;16.30;99.90;;;;;;5106211;27;20054;-47
2022/07/07 06:54:00;;;;;;;7.15;1.60;;;16.30;99.90;;;;;;5125716;27;20035;-46
2022/07/07 06:56:26;;;;;;;8.15;1.30;;;16.30;99.90;;;;;;5126413;27;20042;-49
2022/07/07 06:58:52;;;;;;;6.30;1.00;;;16.30;99.90;;;;;;5110729;28;20371;-51
2022/07/07 07:01:18;;;;;;;3.67;0.70;;;16.20;99.90;;;;;;5127743;27;20031;-48
2022/07/07 07:03:44;;;;;;;2.80;0.40;;;16.00;99.90;;;;;;5114921;28;20043;-49
2022/07/07 07:06:10;;;;;;;3.47;0.80;;;16.20;99.90;;;;;;5124048;27;20039;-48
2022/07/07 07:08:35;;;;;;;5.22;0.90;;;16.20;99.90;;;;;;5117803;28;20051;-47
2022/07/07 07:11:02;;;;;;;5.53;0.80;;;16.40;99.90;;;;;;5085867;28;20035;-51
2022/07/07 07:13:29;;;;;;;7.22;1.08;;;16.50;99.90;;;;;;5105073;28;20088;-47
2022/07/07 07:15:55;;;;;;;3.75;0.85;;;16.60;99.90;;;;;;5110681;28;20035;-49
2022/07/07 07:18:20;;;;;;;5.75;1.05;;;16.80;99.90;;;;;;5104084;28;20040;-49
2022/07/07 07:20:46;;;;;;;5.20;0.80;;;16.90;99.90;;;;;;5105391;28;20067;-51
2022/07/07 07:23:12;;;;;;;4.45;0.63;;;17.10;99.90;;;;;;5112601;28;20035;-50
2022/07/07 07:25:37;;;;;;;5.25;1.00;;;17.00;99.90;;;;;;5092337;28;20039;-49
2022/07/07 07:28:03;;;;;;;7.75;1.25;;;17.00;99.90;;;;;;5108280;28;20047;-48
2022/07/07 07:30:29;;;;;;;2.95;0.60;;;16.90;99.90;;;;;;5089461;28;20466;-46
2022/07/07 07:32:55;;;;;;;6.15;0.82;;;17.00;99.90;;;;;;5117353;28;20046;-50
2022/07/07 07:35:20;;;;;;;3.47;1.10;;;17.20;99.90;;;;;;5108853;28;20590;-47
2022/07/07 07:37:46;;;;;;;4.28;1.00;;;17.40;99.90;;;;;;5102621;28;20050;-48
2022/07/07 07:40:12;;;;;;;5.60;0.90;;;17.50;99.90;;;;;;5102634;28;20039;-50
2022/07/07 07:42:39;;;;;;;4.45;0.68;;;17.50;99.90;;;;;;5098477;28;20043;-51
2022/07/07 07:45:11;;;;;;;4.22;0.68;;;17.30;99.90;;;;;;5088659;28;20071;-50
2022/07/07 07:47:38;;;;;;;3.92;0.70;;;17.10;99.90;;;;;;5102429;28;20106;-51
2022/07/07 07:50:04;;;;;;;5.50;0.63;;;16.90;99.90;;;;;;5085413;28;20043;-52
2022/07/07 07:52:30;;;;;;;4.50;0.68;;;16.80;99.90;;;;;;5105442;27;20044;-46
2022/07/07 07:54:56;;;;;;;4.15;0.77;;;16.20;99.90;;;;;;5103181;28;20501;-49
2022/07/07 07:57:22;;;;;;;4.47;0.85;;;16.10;99.90;;;;;;5104675;28;20019;-51
2022/07/07 07:59:48;;;;;;;3.58;0.77;;;16.00;99.90;;;;;;5103961;27;20070;-51
2022/07/07 08:02:13;;;;;;;9.65;1.73;;;16.30;99.90;;;;;;5104704;28;20036;-50
2022/07/07 08:04:39;;;;;;;7.13;1.90;;;16.40;99.90;;;;;;5104168;28;20043;-50
2022/07/07 08:07:05;;;;;;;8.88;1.48;;;16.40;99.90;;;;;;5104824;28;20089;-51
2022/07/07 08:09:30;;;;;;;5.75;1.00;;;16.60;99.90;;;;;;5104581;28;20493;-51
2022/07/07 08:11:56;;;;;;;6.05;0.95;;;16.70;99.90;;;;;;5104356;27;20035;-50
2022/07/07 08:14:22;;;;;;;8.32;1.55;;;16.90;99.90;;;;;;5087836;28;20773;-53
2022/07/07 08:16:47;;;;;;;9.18;1.13;;;17.10;99.90;;;;;;5103676;28;20117;-52
2022/07/07 08:19:17;;;;;;;4.00;0.93;;;17.20;99.90;;;;;;5101083;27;20036;-48
2022/07/07 08:21:46;;;;;;;5.68;1.00;;;17.30;99.90;;;;;;5101586;28;20126;-50
2022/07/07 08:24:15;;;;;;;8.15;1.60;;;17.40;99.90;;;;;;5101982;28;20043;-49
2022/07/07 08:26:41;;;;;;;6.53;0.90;;;17.30;99.90;;;;;;5101444;28;20446;-51
2022/07/07 08:29:07;;;;;;;8.43;1.30;;;17.30;99.90;;;;;;5102580;28;20032;-54
2022/07/07 08:31:33;;;;;;;6.22;1.10;;;16.80;99.90;;;;;;5102503;28;20039;-51
2022/07/07 08:33:58;;;;;;;5.25;0.80;;;16.60;99.90;;;;;;5103574;28;20042;-51
2022/07/07 08:36:24;;;;;;;4.20;0.77;;;16.50;99.90;;;;;;5104588;27;20837;-46
2022/07/07 08:38:50;;;;;;;6.72;0.60;;;16.50;99.90;;;;;;5103730;28;20039;-49
2022/07/07 08:41:16;;;;;;;4.10;0.80;;;16.40;99.90;;;;;;5103528;28;20032;-53
2022/07/07 08:43:42;;;;;;;3.88;0.77;;;16.60;99.90;;;;;;5103622;28;20101;-49
2022/07/07 08:46:09;;;;;;;8.25;1.33;;;16.70;99.90;;;;;;5102934;28;20424;-48
2022/07/07 08:48:35;;;;;;;4.70;0.88;;;16.80;99.90;;;;;;5101172;28;20055;-51
2022/07/07 08:51:05;;;;;;;7.28;1.20;;;17.00;99.90;;;;;;5103966;28;20067;-51
2022/07/07 08:53:37;;;;;;;5.60;1.05;;;17.10;99.90;;;;;;5102648;28;20024;-48
2022/07/07 08:56:05;;;;;;;7.28;1.13;;;17.30;99.90;;;;;;5102114;27;20039;-48
2022/07/07 08:58:32;;;;;;;6.07;1.30;;;17.40;99.90;;;;;;5101544;28;20028;-53
2022/07/07 09:00:58;;;;;;;4.57;0.70;;;17.60;99.90;;;;;;5101609;28;20126;-53
2022/07/07 09:03:26;;;;;;;5.55;0.90;;;17.80;99.90;;;;;;5096677;27;20415;-51
2022/07/07 09:05:53;;;;;;;4.85;0.93;;;17.80;99.90;;;;;;5082174;28;20051;-49
2022/07/07 09:08:24;;;;;;;5.35;1.02;;;17.60;99.90;;;;;;5101679;28;20481;-51
2022/07/07 09:10:50;;;;;;;4.47;0.70;;;17.40;99.90;;;;;;5101277;28;20142;-51
2022/07/07 09:13:42;;;;;;;8.77;1.60;;;17.30;99.90;;;;;;5099592;28;20127;-49
2022/07/07 09:16:16;;;;;;;9.15;1.90;;;17.30;99.90;;;;;;5092458;27;20096;-52
2022/07/07 09:18:44;;;;;;;5.40;1.40;;;17.20;99.90;;;;;;5099840;28;20036;-50
2022/07/07 09:21:39;;;;;;;6.53;1.50;;;17.70;99.90;;;;;;5097275;27;20046;-51
2022/07/07 09:24:06;;;;;;;7.05;1.02;;;17.70;99.90;;;;;;5076051;27;20056;-50
2022/07/07 09:26:41;;;;;;;6.65;1.25;;;17.60;99.90;;;;;;5098866;27;20024;-51
2022/07/07 09:29:10;;;;;;;9.68;1.92;;;17.50;99.90;;;;;;5096660;28;20028;-49
2022/07/07 09:31:57;;;;;;;6.90;1.10;;;17.50;99.90;;;;;;5081050;28;20038;-51
2022/07/07 09:34:34;;;;;;;8.50;1.42;;;17.60;99.90;;;;;;5081801;28;20040;-51
2022/07/07 09:39:57;;;;;;;7.18;1.35;;;17.70;99.90;;;;;;5101355;28;20050;-49
2022/07/07 09:42:27;;;;;;;9.57;1.50;;;17.90;99.90;;;;;;5102746;28;20145;-53
2022/07/07 09:44:54;;;;;;;9.73;1.48;;;17.90;99.90;;;;;;5101840;28;20036;-49
2022/07/07 09:47:21;;;;;;;5.15;1.38;;;17.90;99.90;;;;;;5103675;28;20028;-49
2022/07/07 09:50:08;;;;;;;5.47;1.17;;;17.90;99.90;;;;;;5103646;28;20032;-51
2022/07/07 09:52:36;;;;;;;3.15;1.00;;;17.80;99.90;;;;;;5102707;27;20415;-50
2022/07/07 09:55:08;;;;;;;7.70;1.70;;;18.00;99.90;;;;;;5102408;27;20780;-50
2022/07/07 09:57:34;;;;;;;6.63;1.42;;;18.20;99.90;;;;;;5102435;28;20118;-51
2022/07/07 10:00:00;;;;;;;6.22;1.02;;;18.30;99.90;;;;;;5102996;27;20036;-50
2022/07/07 10:02:29;;;;;;;6.07;1.40;;;18.50;99.90;;;;;;5102701;28;20046;-48
2022/07/07 10:05:00;;;;;;;6.95;1.83;;;18.60;99.90;;;;;;5102957;27;20044;-51
2022/07/07 10:07:29;;;;;;;4.97;1.20;;;18.60;99.90;;;;;;5102273;28;20340;-47
2022/07/07 10:10:06;;;;;;;4.30;1.08;;;18.20;99.90;;;;;;5102618;27;20043;-52
2022/07/07 10:12:33;;;;;;;3.88;1.00;;;18.00;99.90;;;;;;5101855;28;20148;-50
2022/07/07 10:15:03;;;;;;;4.05;1.00;;;18.00;99.90;;;;;;5103482;27;20470;-51
2022/07/07 10:17:30;;;;;;;4.70;1.08;;;18.40;99.90;;;;;;5101830;28;20035;-51
2022/07/07 10:19:56;;;;;;;4.63;0.80;;;18.60;99.90;;;;;;5102554;28;20057;-52
2022/07/07 10:22:27;;;;;;;6.28;1.15;;;18.30;99.90;;;;;;5102772;27;20386;-50
2022/07/07 10:24:54;;;;;;;3.13;0.80;;;17.90;99.90;;;;;;5096088;28;20075;-50
2022/07/07 10:27:22;;;;;;;1.63;0.70;;;17.50;99.90;;;;;;5045253;28;20035;-48
2022/07/07 10:29:56;;;;;;;1.90;0.60;;;17.40;99.90;;;;;;5098553;28;20128;-48
2022/07/07 10:32:22;;;;;;;;;;;17.20;99.90;;;;;;5101703;28;20067;-50
2022/07/07 10:34:54;;;;;;;3.55;0.80;;;17.40;99.90;;;;;;5101189;28;19951;-49
2022/07/07 10:37:21;;;;;;;3.22;0.77;;;17.50;99.90;;;;;;5100673;28;20031;-53
2022/07/07 10:39:49;;;;;;;4.38;0.80;;;17.70;99.90;;;;;;5101807;27;20177;-51
2022/07/07 10:42:14;;;;;;;2.33;0.80;;;18.00;99.90;;;;;;5100494;28;20081;-51
2022/07/07 10:44:45;;;;;;;2.53;0.80;;;18.40;99.90;;;;;;5100022;28;20067;-48
2022/07/07 10:47:16;;;;;;;2.03;0.63;;;19.00;99.90;;;;;;5101112;28;20035;-51
2022/07/07 10:49:43;;;;;;;7.75;0.90;;;19.00;99.90;;;;;;5100818;28;20043;-49
2022/07/07 10:52:11;;;;;;;2.58;0.75;;;18.20;99.90;;;;;;5101223;28;20036;-51
2022/07/07 10:54:45;;;;;;;4.28;1.02;;;17.80;99.90;;;;;;5100462;28;20036;-51
2022/07/07 10:57:12;;;;;;;2.10;0.50;;;17.50;99.90;;;;;;5071405;28;20074;-52
2022/07/07 10:59:56;;;;;;;2.78;0.60;;;17.30;99.90;;;;;;5100482;28;20039;-53
2022/07/07 11:02:28;;;;;;;;;;;17.30;99.90;;;;;;5093563;28;20114;-51
2022/07/07 11:04:54;;;;;;;4.75;0.70;;;17.40;99.90;;;;;;5096098;28;20661;-49
2022/07/07 11:07:21;;;;;;;4.93;1.05;;;17.60;99.90;;;;;;5094264;28;20549;-51
2022/07/07 11:10:00;;;;;;;5.15;1.10;;;17.60;99.90;;;;;;5093819;28;20062;-51
2022/07/07 11:12:51;;;;;;;7.07;1.25;;;17.40;99.90;;;;;;5092504;28;20068;-51
2022/07/07 11:15:30;;;;;;;8.10;1.92;;;17.20;99.90;;;;;;5094631;28;20050;-51
2022/07/07 11:17:56;;;;;;;9.55;1.80;;;17.30;99.90;;;;;;5092282;28;20044;-52
2022/07/07 11:20:24;;;;;;;12.30;1.92;;;17.40;99.90;;;;;;5095420;28;20436;-52
2022/07/07 11:23:06;;;;;;;10.27;1.58;;;17.50;99.90;;;;;;5092592;28;20040;-50
2022/07/07 11:25:33;;;;;;;9.95;1.77;;;17.70;99.90;;;;;;5096191;28;20040;-49
2022/07/07 11:28:00;;;;;;;7.03;1.60;;;17.90;99.90;;;;;;5100085;27;20039;-50
2022/07/07 11:30:25;;;;;;;16.95;2.75;;;17.90;99.90;;;;;;5099995;28;20739;-49
2022/07/07 11:32:56;;;;;;;10.82;2.08;;;18.10;99.90;;;;;;5100150;28;20067;-51
2022/07/07 11:35:22;;;;;;;13.73;3.78;;;18.30;99.90;;;;;;5099565;28;20440;-50
2022/07/07 11:37:48;;;;;;;11.75;2.05;;;18.40;99.90;;;;;;5095098;28;20050;-51
2022/07/07 11:40:14;;;;;;;13.20;2.03;;;18.50;99.90;;;;;;5098674;28;20108;-50
2022/07/07 11:42:43;;;;;;;9.65;1.65;;;18.10;99.90;;;;;;5101480;27;20035;-53
2022/07/07 11:45:25;;;;;;;11.45;2.22;;;17.80;99.90;;;;;;5095362;28;20039;-53
2022/07/07 11:47:55;;;;;;;13.07;2.00;;;17.80;99.90;;;;;;5098766;28;20431;-51
2022/07/07 11:50:20;;;;;;;14.43;2.35;;;17.70;99.90;;;;;;5100423;28;20532;-51
2022/07/07 11:52:48;;;;;;;11.07;2.35;;;17.80;99.90;;;;;;5098771;28;20035;-49
2022/07/07 11:55:16;;;;;;;9.95;2.10;;;17.80;99.90;;;;;;5093505;28;20039;-49
2022/07/07 11:57:42;;;;;;;16.13;2.28;;;18.10;99.90;;;;;;5094052;28;20050;-48
2022/07/07 12:00:13;;;;;;;8.68;1.65;;;18.10;99.90;;;;;;5100396;28;20028;-49
2022/07/07 12:02:39;;;;;;;8.95;1.92;;;18.40;99.90;;;;;;5098893;27;20040;-52
2022/07/07 12:05:06;;;;;;;14.13;2.10;;;18.70;99.90;;;;;;5099092;28;20039;-52
2022/07/07 12:07:33;;;;;;;11.93;1.75;;;18.60;99.90;;;;;;5099714;28;20399;-53
2022/07/07 12:09:58;;;;;;;9.43;1.35;;;18.80;99.90;;;;;;5100538;27;20366;-49
2022/07/07 12:12:25;;;;;;;8.80;1.50;;;18.80;99.90;;;;;;5079021;28;20069;-50
2022/07/07 12:14:51;;;;;;;6.35;1.40;;;19.00;99.90;;;;;;5098309;28;20040;-53
2022/07/07 12:17:37;;;;;;;8.98;1.90;;;18.90;99.90;;;;;;5096979;27;20522;-49
2022/07/07 12:20:03;;;;;;;9.43;1.55;;;18.80;99.90;;;;;;5057145;28;20048;-53
2022/07/07 12:22:33;;;;;;;8.20;1.42;;;18.80;99.90;;;;;;5058613;28;20135;-52
2022/07/07 12:25:04;;;;;;;7.03;1.35;;;19.20;99.90;;;;;;5057813;28;20055;-50
2022/07/07 12:27:30;;;;;;;8.45;1.60;;;19.40;99.90;;;;;;5058712;28;20021;-52
2022/07/07 12:30:06;;;;;;;5.72;1.33;;;19.40;99.90;;;;;;5058275;28;20032;-52
2022/07/07 12:32:31;;;;;;;9.57;1.98;;;19.20;99.90;;;;;;5058155;28;20053;-50
2022/07/07 12:34:58;;;;;;;10.50;2.10;;;19.00;99.90;;;;;;5058218;28;20115;-50
2022/07/07 12:37:45;;;;;;;6.53;1.30;;;19.00;99.90;;;;;;5059919;28;20040;-52
2022/07/07 12:40:13;;;;;;;9.55;1.88;;;18.80;99.90;;;;;;5061228;28;20040;-49
2022/07/07 12:42:44;;;;;;;7.25;1.83;;;18.90;99.90;;;;;;5060005;28;20041;-50
2022/07/07 12:45:11;;;;;;;13.23;1.75;;;18.70;99.90;;;;;;5059415;28;20496;-49
2022/07/07 12:47:44;;;;;;;7.70;1.40;;;18.50;99.90;;;;;;5059648;28;20486;-47
2022/07/07 12:50:10;;;;;;;9.52;1.63;;;18.50;99.90;;;;;;5058298;28;20037;-48